createdAt,value
2023-05-12T00:00:44.644Z,127.14
2023-05-12T00:01:44.662Z,126.36
2023-05-12T00:02:44.782Z,125.35
2023-05-12T00:03:44.867Z,126.41
2023-05-12T00:04:44.688Z,126.47
2023-05-12T00:05:44.661Z,124.49
2023-05-12T00:06:44.651Z,125.82
2023-05-12T00:07:44.646Z,125.17
2023-05-12T00:08:44.624Z,125.45
2023-05-12T00:09:44.654Z,124.86
2023-05-12T00:10:44.739Z,125.63
2023-05-12T00:11:44.637Z,125.17
2023-05-12T00:12:44.628Z,126.10
2023-05-12T00:13:44.669Z,126.00
2023-05-12T00:14:44.651Z,125.81
2023-05-12T00:15:44.663Z,125.13
2023-05-12T00:16:44.726Z,125.52
2023-05-12T00:17:44.688Z,125.94
2023-05-12T00:18:44.682Z,125.03
2023-05-12T00:19:44.640Z,125.63
2023-05-12T00:20:44.641Z,122.87
2023-05-12T00:21:44.641Z,126.97
2023-05-12T00:22:44.636Z,124.54
2023-05-12T00:23:44.646Z,125.78
2023-05-12T00:24:44.652Z,125.45
2023-05-12T00:25:44.660Z,123.86
2023-05-12T00:26:44.661Z,123.73
2023-05-12T00:27:44.675Z,123.98
2023-05-12T00:28:44.675Z,123.81
2023-05-12T00:29:44.687Z,123.92
2023-05-12T00:30:44.699Z,124.88
2023-05-12T00:31:44.705Z,124.72
2023-05-12T00:32:44.768Z,124.15
2023-05-12T00:33:44.713Z,123.39
2023-05-12T00:34:44.734Z,124.19
2023-05-12T00:35:44.972Z,124.76
2023-05-12T00:36:44.739Z,122.95
2023-05-12T00:37:44.748Z,125.10
2023-05-12T00:38:44.732Z,124.73
2023-05-12T00:39:44.714Z,124.97
2023-05-12T00:40:44.724Z,124.28
2023-05-12T00:41:44.719Z,123.06
2023-05-12T00:42:44.765Z,123.22
2023-05-12T00:43:44.721Z,124.11
2023-05-12T00:44:44.708Z,124.68
2023-05-12T00:45:44.751Z,123.23
2023-05-12T00:46:44.692Z,123.41
2023-05-12T00:47:44.758Z,122.82
2023-05-12T00:48:44.682Z,123.19
2023-05-12T00:49:44.677Z,123.93
2023-05-12T00:50:44.674Z,124.63
2023-05-12T00:51:44.680Z,123.43
2023-05-12T00:52:44.672Z,124.42
2023-05-12T00:53:49.770Z,124.73
2023-05-12T00:54:45.642Z,124.80
2023-05-12T00:55:44.613Z,123.89
2023-05-12T00:56:44.574Z,124.81
2023-05-12T00:57:44.531Z,123.48
2023-05-12T00:58:44.503Z,123.64
2023-05-12T00:59:44.459Z,123.84
2023-05-12T01:00:44.434Z,123.09
2023-05-12T01:01:44.422Z,122.85
2023-05-12T01:02:44.431Z,124.24
2023-05-12T01:03:44.344Z,124.71
2023-05-12T01:04:44.299Z,125.01
2023-05-12T01:05:44.249Z,123.36
2023-05-12T01:06:44.217Z,122.43
2023-05-12T01:07:44.173Z,123.01
2023-05-12T01:08:44.188Z,121.51
2023-05-12T01:09:44.165Z,123.55
2023-05-12T01:10:44.168Z,124.03
2023-05-12T01:11:44.136Z,122.02
2023-05-12T01:12:44.152Z,122.44
2023-05-12T01:13:44.149Z,121.45
2023-05-12T01:14:44.166Z,122.43
2023-05-12T01:15:44.124Z,122.65
2023-05-12T01:16:44.147Z,122.06
2023-05-12T01:17:44.193Z,121.41
2023-05-12T01:18:44.234Z,123.33
2023-05-12T01:19:44.098Z,122.76
2023-05-12T01:20:44.108Z,120.52
2023-05-12T01:21:44.095Z,121.49
2023-05-12T01:22:44.097Z,121.87
2023-05-12T01:23:44.092Z,121.76
2023-05-12T01:24:44.113Z,120.93
2023-05-12T01:25:44.102Z,123.21
2023-05-12T01:26:44.103Z,121.83
2023-05-12T01:27:44.105Z,121.32
2023-05-12T01:28:44.102Z,123.16
2023-05-12T01:29:44.094Z,121.62
2023-05-12T01:30:44.174Z,120.73
2023-05-12T01:31:44.141Z,122.16
2023-05-12T01:32:44.115Z,122.99
2023-05-12T01:33:44.085Z,121.49
2023-05-12T01:34:44.087Z,122.03
2023-05-12T01:35:44.096Z,121.16
2023-05-12T01:36:44.099Z,121.31
2023-05-12T01:37:44.101Z,121.56
2023-05-12T01:38:44.084Z,121.39
2023-05-12T01:39:44.124Z,120.74
2023-05-12T01:40:44.075Z,120.17
2023-05-12T01:41:44.086Z,119.30
2023-05-12T01:42:44.097Z,121.72
2023-05-12T01:43:44.090Z,121.61
2023-05-12T01:44:44.069Z,122.13
2023-05-12T01:45:44.067Z,120.66
2023-05-12T01:46:44.094Z,120.15
2023-05-12T01:47:44.151Z,121.04
2023-05-12T01:48:44.088Z,121.31
2023-05-12T01:49:44.087Z,119.91
2023-05-12T01:50:44.053Z,119.52
2023-05-12T01:51:44.068Z,121.51
2023-05-12T01:52:44.047Z,121.00
2023-05-12T01:53:44.053Z,119.17
2023-05-12T01:54:44.051Z,121.48
2023-05-12T01:55:44.053Z,119.60
2023-05-12T01:56:44.038Z,120.11
2023-05-12T01:57:44.058Z,121.53
2023-05-12T01:58:44.102Z,120.02
2023-05-12T01:59:44.093Z,120.55
2023-05-12T02:00:44.069Z,118.08
2023-05-12T02:01:44.135Z,120.34
2023-05-12T02:02:44.159Z,118.99
2023-05-12T02:03:44.221Z,118.72
2023-05-12T02:04:44.062Z,119.81
2023-05-12T02:05:44.072Z,120.20
2023-05-12T02:06:44.062Z,121.03
2023-05-12T02:07:44.063Z,120.48
2023-05-12T02:08:44.074Z,119.98
2023-05-12T02:09:44.083Z,120.11
2023-05-12T02:10:44.058Z,118.72
2023-05-12T02:11:44.122Z,119.13
2023-05-12T02:12:44.057Z,120.38
2023-05-12T02:13:44.048Z,119.92
2023-05-12T02:14:44.061Z,118.72
2023-05-12T02:15:44.049Z,119.21
2023-05-12T02:16:44.248Z,118.88
2023-05-12T02:17:44.107Z,119.14
2023-05-12T02:18:44.192Z,119.02
2023-05-12T02:19:44.053Z,119.31
2023-05-12T02:20:44.073Z,119.90
2023-05-12T02:21:44.056Z,119.00
2023-05-12T02:22:44.060Z,118.41
2023-05-12T02:23:44.043Z,118.55
2023-05-12T02:24:44.051Z,118.37
2023-05-12T02:25:44.058Z,117.91
2023-05-12T02:26:44.068Z,119.10
2023-05-12T02:27:44.068Z,118.90
2023-05-12T02:28:44.071Z,119.21
2023-05-12T02:29:44.070Z,119.20
2023-05-12T02:30:44.064Z,117.93
2023-05-12T02:31:44.125Z,117.84
2023-05-12T02:32:44.113Z,118.99
2023-05-12T02:33:44.146Z,117.94
2023-05-12T02:34:44.080Z,117.76
2023-05-12T02:35:44.092Z,118.94
2023-05-12T02:36:44.100Z,117.44
2023-05-12T02:37:44.096Z,117.77
2023-05-12T02:38:44.107Z,116.35
2023-05-12T02:39:44.105Z,117.15
2023-05-12T02:40:44.113Z,118.35
2023-05-12T02:41:44.122Z,116.80
2023-05-12T02:42:44.132Z,118.66
2023-05-12T02:43:44.167Z,117.01
2023-05-12T02:44:44.146Z,117.51
2023-05-12T02:45:44.265Z,117.75
2023-05-12T02:46:44.150Z,118.01
2023-05-12T02:47:44.203Z,119.04
2023-05-12T02:48:44.168Z,117.43
2023-05-12T02:49:44.151Z,117.37
2023-05-12T02:50:44.177Z,115.73
2023-05-12T02:51:44.173Z,118.16
2023-05-12T02:52:44.177Z,116.93
2023-05-12T02:53:44.182Z,117.17
2023-05-12T02:54:44.172Z,118.58
2023-05-12T02:55:44.173Z,117.46
2023-05-12T02:56:44.191Z,115.49
2023-05-12T02:57:44.190Z,118.91
2023-05-12T02:58:44.217Z,117.88
2023-05-12T02:59:44.207Z,117.14
2023-05-12T03:00:44.202Z,118.52
2023-05-12T03:01:44.220Z,116.96
2023-05-12T03:02:44.285Z,115.86
2023-05-12T03:03:44.470Z,117.04
2023-05-12T03:04:44.229Z,117.92
2023-05-12T03:05:44.217Z,117.11
2023-05-12T03:06:44.270Z,117.01
2023-05-12T03:07:44.222Z,115.81
2023-05-12T03:08:44.240Z,116.81
2023-05-12T03:09:44.226Z,116.26
2023-05-12T03:10:44.240Z,116.44
2023-05-12T03:11:44.238Z,115.47
2023-05-12T03:12:44.238Z,116.20
2023-05-12T03:13:44.238Z,115.68
2023-05-12T03:14:44.244Z,115.81
2023-05-12T03:15:44.223Z,115.03
2023-05-12T03:16:44.261Z,117.77
2023-05-12T03:17:44.263Z,115.65
2023-05-12T03:18:44.292Z,114.32
2023-05-12T03:19:44.245Z,115.01
2023-05-12T03:20:44.240Z,115.76
2023-05-12T03:21:44.248Z,116.31
2023-05-12T03:22:44.251Z,114.78
2023-05-12T03:23:44.263Z,114.93
2023-05-12T03:24:44.268Z,115.67
2023-05-12T03:25:44.266Z,115.96
2023-05-12T03:26:44.294Z,114.70
2023-05-12T03:27:44.296Z,113.95
2023-05-12T03:28:44.295Z,116.41
2023-05-12T03:29:44.308Z,114.84
2023-05-12T03:30:44.300Z,114.56
2023-05-12T03:31:44.383Z,114.45
2023-05-12T03:32:44.324Z,115.52
2023-05-12T03:33:44.323Z,115.91
2023-05-12T03:34:44.333Z,115.48
2023-05-12T03:35:44.355Z,116.70
2023-05-12T03:36:44.338Z,115.09
2023-05-12T03:37:44.377Z,116.21
2023-05-12T03:38:44.344Z,113.42
2023-05-12T03:39:44.385Z,115.33
2023-05-12T03:40:44.367Z,114.52
2023-05-12T03:41:44.393Z,114.89
2023-05-12T03:42:44.381Z,113.95
2023-05-12T03:43:44.409Z,115.61
2023-05-12T03:44:44.404Z,114.35
2023-05-12T03:45:44.429Z,114.30
2023-05-12T03:46:44.518Z,113.42
2023-05-12T03:47:44.557Z,113.13
2023-05-12T03:48:44.421Z,114.64
2023-05-12T03:49:44.447Z,113.27
2023-05-12T03:50:44.445Z,113.75
2023-05-12T03:51:44.462Z,114.62
2023-05-12T03:52:45.107Z,114.93
2023-05-12T03:53:44.475Z,114.61
2023-05-12T03:54:44.501Z,113.78
2023-05-12T03:55:44.486Z,114.83
2023-05-12T03:56:44.497Z,114.71
2023-05-12T03:57:44.504Z,113.46
2023-05-12T03:58:44.510Z,112.68
2023-05-12T03:59:44.521Z,113.76
2023-05-12T04:00:44.525Z,114.70
2023-05-12T04:01:44.577Z,112.85
2023-05-12T04:02:44.677Z,113.91
2023-05-12T04:03:44.614Z,113.82
2023-05-12T04:04:44.585Z,113.76
2023-05-12T04:05:44.591Z,112.13
2023-05-12T04:06:44.603Z,113.50
2023-05-12T04:07:44.612Z,113.59
2023-05-12T04:08:44.620Z,113.04
2023-05-12T04:09:44.604Z,114.73
2023-05-12T04:10:44.627Z,114.38
2023-05-12T04:11:44.627Z,112.95
2023-05-12T04:12:44.653Z,113.26
2023-05-12T04:13:44.652Z,113.81
2023-05-12T04:14:44.672Z,112.15
2023-05-12T04:15:44.682Z,112.87
2023-05-12T04:16:44.726Z,113.58
2023-05-12T04:17:44.722Z,114.64
2023-05-12T04:18:44.697Z,111.73
2023-05-12T04:19:44.692Z,112.68
2023-05-12T04:20:44.700Z,113.31
2023-05-12T04:21:44.710Z,112.39
2023-05-12T04:22:44.707Z,111.87
2023-05-12T04:23:44.712Z,113.12
2023-05-12T04:24:44.721Z,112.58
2023-05-12T04:25:44.735Z,112.87
2023-05-12T04:26:44.744Z,112.21
2023-05-12T04:27:44.770Z,113.96
2023-05-12T04:28:44.852Z,112.16
2023-05-12T04:29:44.818Z,112.55
2023-05-12T04:30:44.811Z,111.38
2023-05-12T04:31:44.874Z,112.83
2023-05-12T04:32:44.912Z,110.49
2023-05-12T04:33:46.920Z,112.09
2023-05-12T04:34:44.831Z,113.50
2023-05-12T04:35:44.806Z,110.95
2023-05-12T04:36:44.768Z,113.09
2023-05-12T04:37:44.745Z,110.35
2023-05-12T04:38:44.713Z,112.32
2023-05-12T04:39:44.686Z,110.72
2023-05-12T04:40:44.645Z,110.43
2023-05-12T04:41:44.614Z,113.60
2023-05-12T04:42:44.614Z,111.88
2023-05-12T04:44:44.535Z,111.47
2023-05-12T04:45:44.525Z,111.68
2023-05-12T04:46:44.496Z,111.93
2023-05-12T04:47:44.492Z,110.79
2023-05-12T04:48:44.415Z,111.30
2023-05-12T04:49:44.384Z,110.88
2023-05-12T04:50:44.360Z,110.77
2023-05-12T04:51:44.325Z,109.36
2023-05-12T04:52:44.296Z,110.71
2023-05-12T04:53:44.263Z,110.86
2023-05-12T04:54:44.251Z,111.64
2023-05-12T04:55:44.198Z,110.12
2023-05-12T04:56:44.179Z,111.85
2023-05-12T04:57:44.152Z,110.74
2023-05-12T04:58:44.097Z,109.72
2023-05-12T04:59:44.059Z,110.90
2023-05-12T05:00:44.042Z,112.41
2023-05-12T05:01:44.193Z,111.29
2023-05-12T05:02:44.009Z,108.54
2023-05-12T05:03:44.128Z,110.99
2023-05-12T05:04:43.882Z,108.22
2023-05-12T05:05:43.857Z,110.47
2023-05-12T05:06:43.815Z,109.51
2023-05-12T05:07:43.786Z,109.71
2023-05-12T05:08:43.736Z,110.30
2023-05-12T05:09:43.716Z,110.14
2023-05-12T05:10:43.666Z,110.40
2023-05-12T05:11:43.657Z,109.26
2023-05-12T05:12:43.600Z,109.40
2023-05-12T05:13:43.583Z,109.66
2023-05-12T05:14:43.540Z,110.23
2023-05-12T05:15:43.590Z,110.97
2023-05-12T05:16:43.486Z,108.19
2023-05-12T05:17:43.557Z,108.41
2023-05-12T05:18:43.438Z,108.19
2023-05-12T05:19:54.891Z,106.14
2023-05-12T05:20:45.610Z,99.46
2023-05-12T05:21:44.339Z,95.65
2023-05-12T05:22:43.308Z,86.77
2023-05-12T05:23:43.292Z,75.27
2023-05-12T05:24:43.267Z,68.97
2023-05-12T05:25:43.242Z,66.01
2023-05-12T05:26:43.215Z,62.07
2023-05-12T05:27:43.198Z,59.88
2023-05-12T05:28:43.165Z,63.77
2023-05-12T05:29:43.140Z,66.36
2023-05-12T05:30:44.006Z,71.79
2023-05-12T05:31:43.098Z,75.87
2023-05-12T05:32:43.068Z,82.44
2023-05-12T05:33:44.005Z,88.98
2023-05-12T05:34:43.026Z,94.64
2023-05-12T05:35:42.913Z,100.77
2023-05-12T05:36:42.882Z,108.37
2023-05-12T05:37:42.853Z,114.53
2023-05-12T05:38:42.802Z,120.06
2023-05-12T05:39:42.764Z,127.32
2023-05-12T05:40:53.086Z,132.03
2023-05-12T05:41:43.726Z,132.27
2023-05-12T05:42:42.644Z,133.93
2023-05-12T05:43:42.588Z,138.78
2023-05-12T05:44:42.544Z,146.34
2023-05-12T05:45:42.524Z,158.79
2023-05-12T05:46:42.480Z,163.59
2023-05-12T05:47:42.517Z,167.14
2023-05-12T05:48:42.374Z,173.63
2023-05-12T05:49:42.319Z,178.30
2023-05-12T05:50:42.300Z,184.64
2023-05-12T05:51:42.306Z,188.61
2023-05-12T05:52:42.310Z,191.42
2023-05-12T05:53:42.307Z,199.25
2023-05-12T05:54:42.298Z,200.94
2023-05-12T05:55:42.315Z,203.81
2023-05-12T05:56:42.311Z,205.83
2023-05-12T05:57:42.310Z,206.89
2023-05-12T05:58:42.302Z,211.06
2023-05-12T05:59:42.302Z,217.35
2023-05-12T06:00:42.294Z,222.51
2023-05-12T06:01:42.328Z,229.34
2023-05-12T06:02:42.481Z,230.91
2023-05-12T06:03:42.363Z,235.18
2023-05-12T06:04:42.276Z,237.98
2023-05-12T06:05:42.342Z,240.93
2023-05-12T06:06:42.253Z,244.82
2023-05-12T06:07:42.303Z,248.10
2023-05-12T06:08:42.239Z,250.00
2023-05-12T06:09:42.229Z,249.66
2023-05-12T06:10:42.242Z,250.00
2023-05-12T06:11:42.196Z,250.00
2023-05-12T06:12:42.186Z,248.58
2023-05-12T06:13:42.184Z,249.60
2023-05-12T06:14:42.155Z,249.04
2023-05-12T06:15:42.134Z,250.00
2023-05-12T06:16:42.189Z,250.01
2023-05-12T06:17:42.150Z,251.91
2023-05-12T06:18:42.139Z,247.97
2023-05-12T06:19:42.084Z,248.51
2023-05-12T06:20:42.614Z,243.75
2023-05-12T06:21:42.065Z,245.45
2023-05-12T06:22:42.079Z,242.54
2023-05-12T06:23:42.044Z,231.14
2023-05-12T06:24:42.035Z,228.93
2023-05-12T06:25:42.080Z,225.39
2023-05-12T06:26:42.091Z,222.53
2023-05-12T06:27:42.012Z,221.56
2023-05-12T06:28:42.012Z,219.13
2023-05-12T06:29:42.002Z,215.85
2023-05-12T06:30:42.033Z,210.46
2023-05-12T06:31:42.029Z,206.25
2023-05-12T06:32:42.032Z,201.96
2023-05-12T06:33:41.960Z,198.12
2023-05-12T06:34:42.001Z,192.23
2023-05-12T06:35:41.943Z,187.64
2023-05-12T06:36:41.940Z,183.38
2023-05-12T06:37:41.913Z,177.12
2023-05-12T06:38:41.918Z,172.94
2023-05-12T06:39:41.848Z,169.86
2023-05-12T06:40:41.857Z,164.91
2023-05-12T06:41:41.793Z,162.34
2023-05-12T06:42:41.791Z,157.07
2023-05-12T06:43:41.741Z,154.33
2023-05-12T06:44:42.467Z,152.69
2023-05-12T06:45:41.708Z,151.32
2023-05-12T06:46:41.714Z,145.84
2023-05-12T06:47:41.728Z,144.84
2023-05-12T06:48:41.650Z,141.95
2023-05-12T06:49:41.615Z,139.93
2023-05-12T06:50:41.629Z,136.52
2023-05-12T06:51:41.574Z,134.89
2023-05-12T06:52:41.593Z,132.68
2023-05-12T06:53:41.548Z,132.24
2023-05-12T06:54:41.539Z,127.85
2023-05-12T06:55:41.502Z,124.74
2023-05-12T06:56:41.493Z,125.20
2023-05-12T06:57:41.478Z,123.02
2023-05-12T06:58:41.464Z,120.81
2023-05-12T06:59:41.426Z,120.10
2023-05-12T07:00:41.407Z,120.91
2023-05-12T07:01:41.441Z,120.49
2023-05-12T07:02:41.448Z,116.51
2023-05-12T07:03:41.484Z,115.00
2023-05-12T07:04:41.387Z,112.33
2023-05-12T07:05:41.461Z,110.20
2023-05-12T07:06:41.523Z,109.84
2023-05-12T07:07:41.364Z,106.44
2023-05-12T07:08:41.368Z,104.74
2023-05-12T07:09:41.363Z,101.10
2023-05-12T07:10:41.377Z,101.19
2023-05-12T07:11:41.342Z,98.44
2023-05-12T07:12:41.380Z,100.79
2023-05-12T07:13:41.338Z,99.34
2023-05-12T07:14:41.420Z,98.43
2023-05-12T07:15:41.364Z,99.35
2023-05-12T07:16:41.356Z,99.84
2023-05-12T07:17:41.390Z,104.23
2023-05-12T07:18:41.368Z,107.14
2023-05-12T07:19:41.327Z,107.12
2023-05-12T07:20:41.336Z,104.73
2023-05-12T07:21:41.317Z,107.12
2023-05-12T07:22:41.333Z,105.62
2023-05-12T07:23:41.313Z,103.29
2023-05-12T07:24:42.284Z,103.34
2023-05-12T07:25:41.225Z,103.56
2023-05-12T07:26:41.154Z,105.21
2023-05-12T07:27:41.089Z,109.48
2023-05-12T07:28:41.061Z,114.36
2023-05-12T07:29:40.987Z,118.40
2023-05-12T07:30:41.562Z,119.79
2023-05-12T07:31:40.904Z,122.15
2023-05-12T07:32:40.877Z,124.53
2023-05-12T07:33:40.776Z,129.30
2023-05-12T07:34:40.722Z,133.41
2023-05-12T07:35:40.665Z,135.62
2023-05-12T07:36:40.612Z,138.71
2023-05-12T07:37:40.561Z,142.39
2023-05-12T07:38:41.160Z,145.58
2023-05-12T07:39:40.471Z,146.76
2023-05-12T07:40:40.431Z,150.81
2023-05-12T07:41:40.394Z,153.33
2023-05-12T07:42:40.373Z,156.16
2023-05-12T07:43:40.358Z,155.96
2023-05-12T07:44:40.311Z,159.87
2023-05-12T07:45:40.289Z,161.62
2023-05-12T07:46:40.272Z,164.71
2023-05-12T07:47:40.223Z,166.71
2023-05-12T07:48:40.412Z,168.20
2023-05-12T07:49:40.145Z,170.41
2023-05-12T07:50:40.158Z,173.49
2023-05-12T07:51:40.104Z,175.70
2023-05-12T07:52:40.013Z,177.82
2023-05-12T07:53:40.000Z,179.66
2023-05-12T07:54:40.032Z,180.55
2023-05-12T07:55:39.954Z,183.42
2023-05-12T07:56:39.928Z,185.92
2023-05-12T07:57:39.861Z,185.69
2023-05-12T07:58:39.874Z,188.72
2023-05-12T07:59:39.733Z,190.12
2023-05-12T08:00:39.706Z,191.55
2023-05-12T08:01:39.690Z,194.31
2023-05-12T08:02:39.700Z,195.70
2023-05-12T08:03:39.697Z,198.56
2023-05-12T08:04:39.589Z,199.54
2023-05-12T08:05:39.544Z,200.87
2023-05-12T08:06:39.545Z,203.12
2023-05-12T08:08:39.534Z,208.97
2023-05-12T08:09:39.494Z,210.55
2023-05-12T08:10:39.501Z,211.38
2023-05-12T08:11:39.455Z,214.54
2023-05-12T08:12:39.469Z,211.65
2023-05-12T08:13:39.473Z,207.80
2023-05-12T08:14:39.443Z,197.12
2023-05-12T08:15:39.394Z,192.70
2023-05-12T08:16:39.404Z,185.19
2023-05-12T08:17:39.392Z,177.38
2023-05-12T08:18:39.344Z,175.09
2023-05-12T08:19:39.266Z,165.97
2023-05-12T08:20:39.234Z,159.49
2023-05-12T08:21:39.202Z,161.26
2023-05-12T08:22:39.168Z,159.40
2023-05-12T08:23:39.145Z,155.15
2023-05-12T08:24:39.662Z,146.25
2023-05-12T08:25:39.092Z,151.84
2023-05-12T08:26:39.100Z,144.82
2023-05-12T08:27:39.070Z,130.57
2023-05-12T08:28:39.672Z,108.49
2023-05-12T08:29:39.028Z,97.54
2023-05-12T08:30:38.999Z,90.44
2023-05-12T08:31:39.213Z,73.36
2023-05-12T08:32:39.023Z,64.51
2023-05-12T08:33:39.013Z,62.60
2023-05-12T08:34:38.982Z,74.39
2023-05-12T08:35:38.998Z,81.68
2023-05-12T08:36:39.095Z,63.61
2023-05-12T08:37:38.988Z,42.56
2023-05-12T08:38:39.088Z,45.92
2023-05-12T08:39:38.976Z,44.75
2023-05-12T08:40:38.927Z,49.97
2023-05-12T08:41:38.936Z,58.32
2023-05-12T08:42:39.089Z,62.07
2023-05-12T08:43:38.890Z,65.77
2023-05-12T08:44:38.872Z,71.25
2023-05-12T08:45:38.849Z,76.99
2023-05-12T08:46:38.866Z,83.09
2023-05-12T08:47:38.836Z,90.52
2023-05-12T08:48:38.742Z,95.93
2023-05-12T08:49:38.767Z,101.98
2023-05-12T08:50:38.675Z,107.86
2023-05-12T08:51:38.619Z,114.03
2023-05-12T08:52:38.570Z,98.42
2023-05-12T08:53:38.539Z,84.76
2023-05-12T08:54:48.736Z,81.66
2023-05-12T08:55:39.465Z,81.84
2023-05-12T08:57:39.765Z,63.80
2023-05-12T08:58:41.716Z,70.03
2023-05-12T08:59:38.224Z,65.58
2023-05-12T09:00:38.212Z,63.85
2023-05-12T09:01:38.167Z,64.25
2023-05-12T09:02:51.438Z,63.07
2023-05-12T09:03:39.358Z,68.63
2023-05-12T09:04:38.199Z,70.71
2023-05-12T09:05:38.144Z,54.58
2023-05-12T09:06:38.106Z,47.00
2023-05-12T09:07:38.261Z,42.25
2023-05-12T09:08:38.084Z,43.58
2023-05-12T09:09:38.672Z,34.08
2023-05-12T09:10:38.052Z,21.02
2023-05-12T09:11:38.052Z,22.09
2023-05-12T09:12:38.044Z,25.25
2023-05-12T09:13:38.024Z,26.38
2023-05-12T09:14:38.251Z,25.01
2023-05-12T09:15:38.017Z,26.58
2023-05-12T09:16:38.069Z,26.02
2023-05-12T09:17:38.006Z,24.71
2023-05-12T09:18:38.030Z,26.16
2023-05-12T09:19:37.969Z,30.49
2023-05-12T09:20:37.964Z,26.00
2023-05-12T09:21:37.965Z,30.90
2023-05-12T09:22:37.949Z,31.92
2023-05-12T09:23:38.677Z,35.92
2023-05-12T09:24:37.947Z,31.14
2023-05-12T09:25:37.908Z,27.99
2023-05-12T09:26:37.889Z,33.43
2023-05-12T09:27:37.888Z,37.14
2023-05-12T09:28:37.892Z,35.57
2023-05-12T09:30:37.894Z,41.96
2023-05-12T09:31:37.859Z,46.67
2023-05-12T09:32:37.879Z,47.53
2023-05-12T09:33:37.792Z,43.97
2023-05-12T09:34:37.770Z,42.07
2023-05-12T09:35:38.693Z,46.69
2023-05-12T09:36:37.753Z,47.23
2023-05-12T09:37:37.728Z,42.37
2023-05-12T09:38:37.713Z,48.07
2023-05-12T09:39:37.742Z,47.77
2023-05-12T09:40:38.193Z,45.28
2023-05-12T09:41:37.659Z,46.22
2023-05-12T09:42:37.686Z,42.40
2023-05-12T09:43:38.189Z,40.94
2023-05-12T09:44:37.591Z,43.57
2023-05-12T09:45:37.641Z,48.95
2023-05-12T09:46:37.537Z,45.69
2023-05-12T09:47:37.576Z,44.11
2023-05-12T09:48:37.493Z,40.62
2023-05-12T09:49:37.465Z,41.86
2023-05-12T09:50:46.496Z,46.29
2023-05-12T09:51:38.406Z,46.49
2023-05-12T09:52:37.381Z,47.82
2023-05-12T09:53:37.316Z,52.85
2023-05-12T09:54:37.284Z,63.33
2023-05-12T09:55:37.215Z,76.41
2023-05-12T09:56:37.261Z,81.67
2023-05-12T09:57:37.156Z,87.65
2023-05-12T09:58:37.119Z,82.33
2023-05-12T09:59:37.069Z,81.41
2023-05-12T10:00:58.555Z,87.78
2023-05-12T10:01:37.983Z,87.72
2023-05-12T10:02:36.998Z,83.33
2023-05-12T10:03:36.888Z,88.49
2023-05-12T10:04:36.929Z,90.14
2023-05-12T10:05:36.780Z,87.07
2023-05-12T10:06:36.753Z,92.59
2023-05-12T10:07:36.888Z,96.77
2023-05-12T10:08:36.651Z,94.65
2023-05-12T10:09:36.580Z,96.58
2023-05-12T10:10:36.570Z,99.31
2023-05-12T10:11:36.529Z,100.34
2023-05-12T10:12:36.538Z,103.78
2023-05-12T10:13:36.516Z,106.86
2023-05-12T10:14:36.515Z,108.96
2023-05-12T10:15:36.489Z,109.88
2023-05-12T10:16:36.510Z,112.71
2023-05-12T10:17:37.229Z,112.85
2023-05-12T10:18:37.348Z,114.07
2023-05-12T10:19:36.427Z,113.72
2023-05-12T10:20:36.379Z,115.09
2023-05-12T10:21:37.206Z,115.51
2023-05-12T10:22:36.332Z,115.37
2023-05-12T10:23:37.929Z,116.66
2023-05-12T10:24:36.279Z,117.16
2023-05-12T10:25:36.238Z,117.44
2023-05-12T10:26:36.216Z,119.07
2023-05-12T10:27:36.227Z,118.74
2023-05-12T10:28:36.153Z,118.59
2023-05-12T10:29:36.217Z,119.56
2023-05-12T10:30:36.120Z,119.19
2023-05-12T10:31:36.200Z,119.89
2023-05-12T10:32:36.110Z,120.66
2023-05-12T10:33:36.054Z,121.71
2023-05-12T10:34:36.040Z,123.08
2023-05-12T10:35:36.021Z,122.63
2023-05-12T10:36:35.984Z,123.77
2023-05-12T10:37:35.980Z,124.97
2023-05-12T10:38:35.951Z,123.82
2023-05-12T10:39:35.931Z,124.68
2023-05-12T10:40:35.954Z,123.43
2023-05-12T10:41:35.865Z,124.98
2023-05-12T10:42:35.841Z,125.62
2023-05-12T10:43:35.830Z,125.10
2023-05-12T10:44:35.827Z,127.09
2023-05-12T10:45:35.794Z,125.47
2023-05-12T10:46:35.767Z,126.56
2023-05-12T10:47:36.813Z,127.49
2023-05-12T10:48:36.225Z,127.33
2023-05-12T10:49:35.698Z,127.06
2023-05-12T10:50:35.670Z,128.47
2023-05-12T10:51:35.647Z,128.05
2023-05-12T10:52:35.620Z,127.63
2023-05-12T10:53:47.607Z,128.09
2023-05-12T10:54:36.572Z,128.18
2023-05-12T10:55:35.575Z,128.31
2023-05-12T10:56:35.682Z,128.52
2023-05-12T10:57:35.674Z,129.41
2023-05-12T10:58:35.814Z,130.03
2023-05-12T10:59:35.469Z,130.95
2023-05-12T11:00:35.551Z,132.88
2023-05-12T11:01:35.861Z,133.87
2023-05-12T11:02:37.013Z,136.35
2023-05-12T11:03:36.064Z,136.53
2023-05-12T11:04:35.268Z,136.81
2023-05-12T11:05:35.155Z,137.94
2023-05-12T11:06:35.206Z,143.01
2023-05-12T11:07:35.524Z,150.62
2023-05-12T11:08:35.828Z,159.36
2023-05-12T11:09:34.930Z,158.30
2023-05-12T11:10:35.685Z,159.21
2023-05-12T11:11:35.195Z,158.11
2023-05-12T11:12:34.718Z,156.88
2023-05-12T11:13:34.659Z,154.37
2023-05-12T11:14:34.616Z,154.25
2023-05-12T11:15:34.564Z,153.38
2023-05-12T11:16:34.567Z,155.70
2023-05-12T11:17:34.524Z,155.71
2023-05-12T11:18:34.469Z,155.19
2023-05-12T11:19:34.413Z,154.20
2023-05-12T11:20:35.234Z,155.59
2023-05-12T11:21:34.297Z,155.46
2023-05-12T11:22:34.446Z,157.43
2023-05-12T11:23:34.218Z,157.30
2023-05-12T11:24:34.214Z,158.07
2023-05-12T11:25:34.235Z,156.89
2023-05-12T11:26:34.163Z,156.88
2023-05-12T11:27:34.116Z,156.43
2023-05-12T11:28:34.141Z,158.21
2023-05-12T11:29:34.085Z,156.59
2023-05-12T11:30:34.093Z,156.58
2023-05-12T11:31:34.077Z,156.62
2023-05-12T11:32:34.082Z,157.47
2023-05-12T11:33:34.022Z,155.90
2023-05-12T11:34:34.039Z,156.73
2023-05-12T11:35:33.985Z,156.20
2023-05-12T11:36:33.990Z,157.33
2023-05-12T11:37:33.962Z,157.88
2023-05-12T11:38:33.959Z,157.82
2023-05-12T11:39:33.922Z,156.09
2023-05-12T11:40:33.897Z,156.90
2023-05-12T11:41:33.873Z,158.00
2023-05-12T11:42:33.849Z,158.38
2023-05-12T11:43:33.829Z,156.18
2023-05-12T11:44:33.807Z,158.28
2023-05-12T11:45:33.804Z,158.29
2023-05-12T11:46:33.774Z,157.40
2023-05-12T11:47:33.780Z,158.00
2023-05-12T11:48:33.732Z,157.51
2023-05-12T11:49:33.733Z,156.79
2023-05-12T11:50:33.713Z,157.09
2023-05-12T11:51:33.690Z,158.61
2023-05-12T11:52:33.667Z,158.71
2023-05-12T11:53:33.646Z,158.09
2023-05-12T11:54:33.639Z,157.67
2023-05-12T11:55:33.629Z,157.83
2023-05-12T11:56:33.614Z,155.18
2023-05-12T11:57:33.629Z,157.42
2023-05-12T11:58:35.554Z,155.63
2023-05-12T11:59:33.680Z,158.44
2023-05-12T12:00:33.566Z,157.98
2023-05-12T12:01:33.580Z,157.22
2023-05-12T12:02:33.682Z,156.79
2023-05-12T12:03:33.615Z,158.84
2023-05-12T12:04:33.727Z,156.09
2023-05-12T12:05:33.519Z,157.85
2023-05-12T12:06:33.496Z,157.67
2023-05-12T12:07:33.496Z,158.04
2023-05-12T12:08:33.469Z,157.13
2023-05-12T12:09:33.465Z,157.91
2023-05-12T12:10:33.454Z,157.51
2023-05-12T12:11:33.440Z,156.02
2023-05-12T12:12:33.414Z,157.65
2023-05-12T12:13:33.428Z,158.10
2023-05-12T12:14:33.428Z,157.58
2023-05-12T12:15:33.374Z,157.35
2023-05-12T12:16:33.430Z,158.37
2023-05-12T12:17:33.380Z,156.78
2023-05-12T12:18:33.379Z,157.11
2023-05-12T12:19:33.356Z,157.89
2023-05-12T12:20:33.325Z,157.50
2023-05-12T12:21:33.310Z,157.35
2023-05-12T12:22:33.309Z,158.94
2023-05-12T12:23:40.616Z,156.37
2023-05-12T12:24:34.259Z,156.48
2023-05-12T12:25:33.197Z,156.57
2023-05-12T12:26:33.178Z,156.99
2023-05-12T12:27:33.090Z,157.24
2023-05-12T12:28:33.041Z,157.70
2023-05-12T12:29:32.997Z,157.17
2023-05-12T12:30:32.946Z,158.24
2023-05-12T12:31:32.946Z,156.83
2023-05-12T12:32:32.861Z,156.37
2023-05-12T12:33:32.790Z,159.02
2023-05-12T12:34:32.757Z,157.67
2023-05-12T12:35:32.678Z,156.89
2023-05-12T12:36:32.673Z,157.46